sensor_id;sensor_type;location;lat;lon;timestamp;P1;durP1;ratioP1;P2;durP2;ratioP2
10063;SDS011;5071;52.360;13.134;2022-12-05T00:02:20;86.17;;;29.13;;
10063;SDS011;5071;52.360;13.134;2022-12-05T00:07:24;76.60;;;25.63;;
10063;SDS011;5071;52.360;13.134;2022-12-05T00:12:26;89.60;;;28.07;;
10063;SDS011;5071;52.360;13.134;2022-12-05T00:17:29;83.77;;;27.33;;
10063;SDS011;5071;52.360;13.134;2022-12-05T00:22:35;101.83;;;27.83;;
10063;SDS011;5071;52.360;13.134;2022-12-05T00:27:37;86.60;;;26.63;;
10063;SDS011;5071;52.360;13.134;2022-12-05T00:32:39;97.20;;;27.00;;
10063;SDS011;5071;52.360;13.134;2022-12-05T00:37:43;95.03;;;26.87;;
10063;SDS011;5071;52.360;13.134;2022-12-05T00:42:45;87.10;;;27.80;;
10063;SDS011;5071;52.360;13.134;2022-12-05T00:47:52;113.87;;;27.73;;
10063;SDS011;5071;52.360;13.134;2022-12-05T00:52:55;91.67;;;25.40;;
10063;SDS011;5071;52.360;13.134;2022-12-05T00:57:58;90.27;;;27.07;;
10063;SDS011;5071;52.360;13.134;2022-12-05T01:03:00;101.73;;;28.47;;
10063;SDS011;5071;52.360;13.134;2022-12-05T01:08:03;83.73;;;26.47;;
10063;SDS011;5071;52.360;13.134;2022-12-05T01:13:05;76.43;;;26.37;;
10063;SDS011;5071;52.360;13.134;2022-12-05T01:18:07;94.30;;;27.37;;
10063;SDS011;5071;52.360;13.134;2022-12-05T01:23:11;101.63;;;28.27;;
10063;SDS011;5071;52.360;13.134;2022-12-05T01:28:14;82.73;;;26.60;;
10063;SDS011;5071;52.360;13.134;2022-12-05T01:33:17;88.77;;;27.87;;
10063;SDS011;5071;52.360;13.134;2022-12-05T01:38:20;93.53;;;28.20;;
10063;SDS011;5071;52.360;13.134;2022-12-05T01:43:22;96.90;;;27.50;;
10063;SDS011;5071;52.360;13.134;2022-12-05T01:48:24;73.77;;;25.70;;
10063;SDS011;5071;52.360;13.134;2022-12-05T01:53:32;97.27;;;26.57;;
10063;SDS011;5071;52.360;13.134;2022-12-05T01:58:35;101.23;;;28.53;;
10063;SDS011;5071;52.360;13.134;2022-12-05T02:03:39;92.63;;;25.97;;
10063;SDS011;5071;52.360;13.134;2022-12-05T02:08:44;83.80;;;27.07;;
10063;SDS011;5071;52.360;13.134;2022-12-05T02:14:00;99.10;;;28.13;;
10063;SDS011;5071;52.360;13.134;2022-12-05T02:19:22;103.20;;;29.23;;
10063;SDS011;5071;52.360;13.134;2022-12-05T02:30:24;85.77;;;27.27;;
10063;SDS011;5071;52.360;13.134;2022-12-05T02:35:30;92.53;;;26.53;;
10063;SDS011;5071;52.360;13.134;2022-12-05T02:40:40;95.33;;;28.53;;
10063;SDS011;5071;52.360;13.134;2022-12-05T02:45:51;82.13;;;24.80;;
10063;SDS011;5071;52.360;13.134;2022-12-05T02:50:57;80.27;;;27.37;;
10063;SDS011;5071;52.360;13.134;2022-12-05T02:56:02;89.77;;;25.33;;
10063;SDS011;5071;52.360;13.134;2022-12-05T03:01:08;73.23;;;25.40;;
10063;SDS011;5071;52.360;13.134;2022-12-05T03:06:12;71.10;;;24.43;;
10063;SDS011;5071;52.360;13.134;2022-12-05T03:11:16;75.13;;;24.67;;
10063;SDS011;5071;52.360;13.134;2022-12-05T03:16:21;68.83;;;22.87;;
10063;SDS011;5071;52.360;13.134;2022-12-05T03:21:29;71.63;;;25.43;;
10063;SDS011;5071;52.360;13.134;2022-12-05T03:26:40;64.53;;;23.73;;
10063;SDS011;5071;52.360;13.134;2022-12-05T03:31:54;71.87;;;21.47;;
10063;SDS011;5071;52.360;13.134;2022-12-05T03:37:04;61.93;;;23.87;;
10063;SDS011;5071;52.360;13.134;2022-12-05T03:42:11;67.03;;;23.63;;
10063;SDS011;5071;52.360;13.134;2022-12-05T03:47:16;74.13;;;22.23;;
10063;SDS011;5071;52.360;13.134;2022-12-05T03:52:26;71.17;;;23.30;;
10063;SDS011;5071;52.360;13.134;2022-12-05T03:57:53;64.03;;;20.53;;
10063;SDS011;5071;52.360;13.134;2022-12-05T04:03:01;58.47;;;22.50;;
10063;SDS011;5071;52.360;13.134;2022-12-05T04:08:06;51.77;;;19.67;;
10063;SDS011;5071;52.360;13.134;2022-12-05T04:13:12;69.50;;;22.50;;
10063;SDS011;5071;52.360;13.134;2022-12-05T04:18:20;60.47;;;20.87;;
10063;SDS011;5071;52.360;13.134;2022-12-05T04:23:26;65.60;;;21.90;;
10063;SDS011;5071;52.360;13.134;2022-12-05T04:28:30;54.27;;;20.53;;
10063;SDS011;5071;52.360;13.134;2022-12-05T04:33:39;64.10;;;21.87;;
10063;SDS011;5071;52.360;13.134;2022-12-05T04:38:45;54.90;;;20.40;;
10063;SDS011;5071;52.360;13.134;2022-12-05T04:43:51;53.80;;;18.57;;
10063;SDS011;5071;52.360;13.134;2022-12-05T04:48:58;60.27;;;21.07;;
10063;SDS011;5071;52.360;13.134;2022-12-05T04:54:03;57.30;;;20.53;;
10063;SDS011;5071;52.360;13.134;2022-12-05T04:59:13;50.63;;;18.30;;
10063;SDS011;5071;52.360;13.134;2022-12-05T05:04:18;53.77;;;17.70;;
10063;SDS011;5071;52.360;13.134;2022-12-05T05:09:26;55.77;;;19.23;;
10063;SDS011;5071;52.360;13.134;2022-12-05T05:14:28;49.53;;;18.60;;
10063;SDS011;5071;52.360;13.134;2022-12-05T05:19:31;43.67;;;17.00;;
10063;SDS011;5071;52.360;13.134;2022-12-05T05:24:33;43.47;;;17.07;;
10063;SDS011;5071;52.360;13.134;2022-12-05T05:29:35;51.33;;;19.40;;
10063;SDS011;5071;52.360;13.134;2022-12-05T05:34:38;40.33;;;16.90;;
10063;SDS011;5071;52.360;13.134;2022-12-05T05:39:41;48.00;;;18.10;;
10063;SDS011;5071;52.360;13.134;2022-12-05T05:44:43;36.63;;;15.87;;
10063;SDS011;5071;52.360;13.134;2022-12-05T05:49:46;52.43;;;16.87;;
10063;SDS011;5071;52.360;13.134;2022-12-05T05:54:48;35.40;;;14.70;;
10063;SDS011;5071;52.360;13.134;2022-12-05T05:59:50;42.77;;;16.10;;
10063;SDS011;5071;52.360;13.134;2022-12-05T06:04:54;38.10;;;15.80;;
10063;SDS011;5071;52.360;13.134;2022-12-05T06:09:56;33.57;;;14.63;;
10063;SDS011;5071;52.360;13.134;2022-12-05T06:14:59;34.87;;;13.97;;
10063;SDS011;5071;52.360;13.134;2022-12-05T06:20:02;38.87;;;15.57;;
10063;SDS011;5071;52.360;13.134;2022-12-05T06:25:05;34.13;;;13.87;;
10063;SDS011;5071;52.360;13.134;2022-12-05T06:30:08;40.40;;;16.50;;
10063;SDS011;5071;52.360;13.134;2022-12-05T06:35:12;40.40;;;17.13;;
10063;SDS011;5071;52.360;13.134;2022-12-05T06:40:14;42.50;;;15.37;;
10063;SDS011;5071;52.360;13.134;2022-12-05T06:45:16;37.20;;;15.80;;
10063;SDS011;5071;52.360;13.134;2022-12-05T06:50:19;28.90;;;12.87;;
10063;SDS011;5071;52.360;13.134;2022-12-05T06:55:22;30.47;;;13.60;;
10063;SDS011;5071;52.360;13.134;2022-12-05T07:00:24;29.73;;;13.83;;
10063;SDS011;5071;52.360;13.134;2022-12-05T07:05:28;26.70;;;13.23;;
10063;SDS011;5071;52.360;13.134;2022-12-05T07:10:30;32.00;;;15.03;;
10063;SDS011;5071;52.360;13.134;2022-12-05T07:15:33;30.17;;;13.57;;
10063;SDS011;5071;52.360;13.134;2022-12-05T07:20:36;28.97;;;12.37;;
10063;SDS011;5071;52.360;13.134;2022-12-05T07:25:59;36.10;;;13.00;;
10063;SDS011;5071;52.360;13.134;2022-12-05T07:31:05;32.37;;;13.00;;
10063;SDS011;5071;52.360;13.134;2022-12-05T07:36:12;26.63;;;12.17;;
10063;SDS011;5071;52.360;13.134;2022-12-05T07:41:18;25.30;;;12.47;;
10063;SDS011;5071;52.360;13.134;2022-12-05T07:46:23;25.30;;;11.97;;
10063;SDS011;5071;52.360;13.134;2022-12-05T07:51:27;32.63;;;13.47;;
10063;SDS011;5071;52.360;13.134;2022-12-05T07:56:29;31.10;;;11.27;;
10063;SDS011;5071;52.360;13.134;2022-12-05T08:01:32;21.37;;;10.70;;
10063;SDS011;5071;52.360;13.134;2022-12-05T08:06:35;24.63;;;10.97;;
10063;SDS011;5071;52.360;13.134;2022-12-05T08:11:37;19.03;;;9.60;;
10063;SDS011;5071;52.360;13.134;2022-12-05T08:16:39;21.00;;;10.60;;
10063;SDS011;5071;52.360;13.134;2022-12-05T08:21:43;20.90;;;9.77;;
10063;SDS011;5071;52.360;13.134;2022-12-05T08:26:45;20.97;;;11.10;;
10063;SDS011;5071;52.360;13.134;2022-12-05T08:31:48;19.70;;;9.70;;
10063;SDS011;5071;52.360;13.134;2022-12-05T08:36:53;26.23;;;10.90;;
10063;SDS011;5071;52.360;13.134;2022-12-05T08:41:56;21.20;;;9.57;;
10063;SDS011;5071;52.360;13.134;2022-12-05T08:46:58;20.83;;;10.37;;
10063;SDS011;5071;52.360;13.134;2022-12-05T08:52:02;19.80;;;10.67;;
10063;SDS011;5071;52.360;13.134;2022-12-05T08:57:04;27.67;;;11.40;;
10063;SDS011;5071;52.360;13.134;2022-12-05T09:02:07;24.30;;;11.57;;
10063;SDS011;5071;52.360;13.134;2022-12-05T09:07:10;24.47;;;11.10;;
10063;SDS011;5071;52.360;13.134;2022-12-05T09:12:13;23.30;;;11.43;;
10063;SDS011;5071;52.360;13.134;2022-12-05T09:17:14;23.80;;;11.67;;
10063;SDS011;5071;52.360;13.134;2022-12-05T09:22:18;21.37;;;11.10;;
10063;SDS011;5071;52.360;13.134;2022-12-05T09:27:21;23.30;;;11.03;;
10063;SDS011;5071;52.360;13.134;2022-12-05T09:32:23;22.23;;;11.10;;
10063;SDS011;5071;52.360;13.134;2022-12-05T09:37:27;23.57;;;12.20;;
10063;SDS011;5071;52.360;13.134;2022-12-05T09:42:42;27.50;;;12.23;;
10063;SDS011;5071;52.360;13.134;2022-12-05T09:47:57;31.53;;;13.47;;
10063;SDS011;5071;52.360;13.134;2022-12-05T09:53:08;27.87;;;11.97;;
10063;SDS011;5071;52.360;13.134;2022-12-05T09:58:19;24.70;;;12.43;;
10063;SDS011;5071;52.360;13.134;2022-12-05T10:03:28;25.07;;;12.30;;
10063;SDS011;5071;52.360;13.134;2022-12-05T10:08:42;28.30;;;12.13;;
10063;SDS011;5071;52.360;13.134;2022-12-05T10:13:57;30.67;;;12.50;;
10063;SDS011;5071;52.360;13.134;2022-12-05T10:19:10;30.67;;;13.17;;
10063;SDS011;5071;52.360;13.134;2022-12-05T10:24:27;27.33;;;12.60;;
10063;SDS011;5071;52.360;13.134;2022-12-05T10:29:34;28.70;;;12.57;;
10063;SDS011;5071;52.360;13.134;2022-12-05T10:34:40;25.97;;;11.93;;
10063;SDS011;5071;52.360;13.134;2022-12-05T10:39:45;27.63;;;12.80;;
10063;SDS011;5071;52.360;13.134;2022-12-05T10:44:49;26.90;;;12.40;;
10063;SDS011;5071;52.360;13.134;2022-12-05T10:49:57;24.10;;;12.13;;
10063;SDS011;5071;52.360;13.134;2022-12-05T10:55:05;28.03;;;13.93;;
10063;SDS011;5071;52.360;13.134;2022-12-05T11:00:09;26.73;;;12.77;;
10063;SDS011;5071;52.360;13.134;2022-12-05T11:05:16;28.13;;;13.13;;
10063;SDS011;5071;52.360;13.134;2022-12-05T11:10:31;35.53;;;13.87;;
10063;SDS011;5071;52.360;13.134;2022-12-05T11:15:37;28.93;;;13.20;;
10063;SDS011;5071;52.360;13.134;2022-12-05T11:20:45;32.27;;;13.37;;
10063;SDS011;5071;52.360;13.134;2022-12-05T11:25:49;27.10;;;12.63;;
10063;SDS011;5071;52.360;13.134;2022-12-05T11:30:55;32.77;;;13.60;;
10063;SDS011;5071;52.360;13.134;2022-12-05T11:36:02;28.13;;;12.93;;
10063;SDS011;5071;52.360;13.134;2022-12-05T11:41:14;28.03;;;13.10;;
10063;SDS011;5071;52.360;13.134;2022-12-05T11:46:41;23.33;;;11.97;;
10063;SDS011;5071;52.360;13.134;2022-12-05T11:51:55;25.20;;;12.73;;
10063;SDS011;5071;52.360;13.134;2022-12-05T11:57:12;28.80;;;13.00;;
10063;SDS011;5071;52.360;13.134;2022-12-05T12:02:27;27.13;;;13.23;;
10063;SDS011;5071;52.360;13.134;2022-12-05T12:07:45;27.77;;;12.23;;
10063;SDS011;5071;52.360;13.134;2022-12-05T12:13:03;30.07;;;13.27;;
10063;SDS011;5071;52.360;13.134;2022-12-05T12:18:19;32.07;;;12.27;;
10063;SDS011;5071;52.360;13.134;2022-12-05T12:23:38;27.90;;;12.70;;
10063;SDS011;5071;52.360;13.134;2022-12-05T12:28:54;36.73;;;13.60;;
10063;SDS011;5071;52.360;13.134;2022-12-05T12:34:07;31.10;;;13.40;;
10063;SDS011;5071;52.360;13.134;2022-12-05T12:39:29;28.93;;;12.67;;
10063;SDS011;5071;52.360;13.134;2022-12-05T12:44:49;32.60;;;13.03;;
10063;SDS011;5071;52.360;13.134;2022-12-05T12:50:04;32.90;;;12.30;;
10063;SDS011;5071;52.360;13.134;2022-12-05T12:55:16;29.30;;;13.37;;
10063;SDS011;5071;52.360;13.134;2022-12-05T13:00:25;34.23;;;13.20;;
10063;SDS011;5071;52.360;13.134;2022-12-05T13:05:37;33.53;;;13.73;;
10063;SDS011;5071;52.360;13.134;2022-12-05T13:10:43;32.07;;;12.60;;
10063;SDS011;5071;52.360;13.134;2022-12-05T13:15:49;30.80;;;13.60;;
10063;SDS011;5071;52.360;13.134;2022-12-05T13:20:56;39.70;;;14.33;;
10063;SDS011;5071;52.360;13.134;2022-12-05T13:26:00;38.20;;;15.33;;
10063;SDS011;5071;52.360;13.134;2022-12-05T13:31:10;41.90;;;14.37;;
10063;SDS011;5071;52.360;13.134;2022-12-05T13:36:13;39.70;;;15.03;;
10063;SDS011;5071;52.360;13.134;2022-12-05T13:41:19;29.10;;;12.57;;
10063;SDS011;5071;52.360;13.134;2022-12-05T13:46:25;35.47;;;13.53;;
10063;SDS011;5071;52.360;13.134;2022-12-05T13:51:30;34.23;;;13.83;;
10063;SDS011;5071;52.360;13.134;2022-12-05T13:56:46;35.63;;;14.60;;
10063;SDS011;5071;52.360;13.134;2022-12-05T14:01:54;36.37;;;13.27;;
10063;SDS011;5071;52.360;13.134;2022-12-05T14:06:57;39.43;;;14.10;;
10063;SDS011;5071;52.360;13.134;2022-12-05T14:17:35;40.40;;;14.43;;
10063;SDS011;5071;52.360;13.134;2022-12-05T14:22:56;34.10;;;13.47;;
10063;SDS011;5071;52.360;13.134;2022-12-05T14:28:14;49.63;;;15.23;;
10063;SDS011;5071;52.360;13.134;2022-12-05T14:33:29;51.30;;;14.17;;
10063;SDS011;5071;52.360;13.134;2022-12-05T14:38:32;33.87;;;13.43;;
10063;SDS011;5071;52.360;13.134;2022-12-05T14:43:37;44.40;;;15.50;;
10063;SDS011;5071;52.360;13.134;2022-12-05T14:48:43;47.30;;;15.67;;
10063;SDS011;5071;52.360;13.134;2022-12-05T14:53:48;37.13;;;14.13;;
10063;SDS011;5071;52.360;13.134;2022-12-05T14:58:53;44.87;;;15.00;;
10063;SDS011;5071;52.360;13.134;2022-12-05T15:04:04;47.97;;;16.23;;
10063;SDS011;5071;52.360;13.134;2022-12-05T15:09:20;44.47;;;15.50;;
10063;SDS011;5071;52.360;13.134;2022-12-05T15:14:42;44.07;;;15.17;;
10063;SDS011;5071;52.360;13.134;2022-12-05T15:19:50;41.00;;;14.83;;
10063;SDS011;5071;52.360;13.134;2022-12-05T15:24:57;42.43;;;14.10;;
10063;SDS011;5071;52.360;13.134;2022-12-05T15:29:59;49.80;;;15.23;;
10063;SDS011;5071;52.360;13.134;2022-12-05T15:35:04;39.43;;;14.60;;
10063;SDS011;5071;52.360;13.134;2022-12-05T15:40:09;47.13;;;13.90;;
10063;SDS011;5071;52.360;13.134;2022-12-05T15:45:17;43.77;;;14.93;;
10063;SDS011;5071;52.360;13.134;2022-12-05T15:50:29;42.87;;;15.70;;
10063;SDS011;5071;52.360;13.134;2022-12-05T15:55:35;33.10;;;13.40;;
10063;SDS011;5071;52.360;13.134;2022-12-05T16:00:41;33.27;;;13.53;;
10063;SDS011;5071;52.360;13.134;2022-12-05T16:05:50;40.03;;;14.80;;
10063;SDS011;5071;52.360;13.134;2022-12-05T16:10:56;36.20;;;13.57;;
10063;SDS011;5071;52.360;13.134;2022-12-05T16:15:58;36.30;;;14.10;;
10063;SDS011;5071;52.360;13.134;2022-12-05T16:21:02;33.63;;;14.83;;
10063;SDS011;5071;52.360;13.134;2022-12-05T16:26:38;43.27;;;16.43;;
10063;SDS011;5071;52.360;13.134;2022-12-05T16:31:42;42.07;;;15.43;;
10063;SDS011;5071;52.360;13.134;2022-12-05T16:36:46;44.40;;;16.63;;
10063;SDS011;5071;52.360;13.134;2022-12-05T16:41:50;49.33;;;16.83;;
10063;SDS011;5071;52.360;13.134;2022-12-05T16:46:53;42.70;;;16.53;;
10063;SDS011;5071;52.360;13.134;2022-12-05T16:52:00;43.43;;;16.43;;
10063;SDS011;5071;52.360;13.134;2022-12-05T16:57:04;47.87;;;16.50;;
10063;SDS011;5071;52.360;13.134;2022-12-05T17:02:09;47.03;;;15.87;;
10063;SDS011;5071;52.360;13.134;2022-12-05T17:07:15;37.40;;;15.40;;
10063;SDS011;5071;52.360;13.134;2022-12-05T17:12:17;48.80;;;17.30;;
10063;SDS011;5071;52.360;13.134;2022-12-05T17:17:23;42.97;;;16.23;;
10063;SDS011;5071;52.360;13.134;2022-12-05T17:22:27;37.07;;;15.53;;
10063;SDS011;5071;52.360;13.134;2022-12-05T17:27:29;46.90;;;17.60;;
10063;SDS011;5071;52.360;13.134;2022-12-05T17:32:32;49.57;;;17.73;;
10063;SDS011;5071;52.360;13.134;2022-12-05T17:37:36;49.33;;;17.60;;
10063;SDS011;5071;52.360;13.134;2022-12-05T17:42:38;55.93;;;18.70;;
10063;SDS011;5071;52.360;13.134;2022-12-05T17:47:41;53.77;;;20.63;;
10063;SDS011;5071;52.360;13.134;2022-12-05T17:52:45;45.90;;;17.97;;
10063;SDS011;5071;52.360;13.134;2022-12-05T17:57:48;57.63;;;20.60;;
10063;SDS011;5071;52.360;13.134;2022-12-05T18:02:51;71.53;;;20.93;;
10063;SDS011;5071;52.360;13.134;2022-12-05T18:07:55;63.33;;;20.50;;
10063;SDS011;5071;52.360;13.134;2022-12-05T18:12:58;58.83;;;20.43;;
10063;SDS011;5071;52.360;13.134;2022-12-05T18:18:00;45.40;;;17.67;;
10063;SDS011;5071;52.360;13.134;2022-12-05T18:23:05;52.93;;;19.43;;
10063;SDS011;5071;52.360;13.134;2022-12-05T18:28:07;40.77;;;18.13;;
10063;SDS011;5071;52.360;13.134;2022-12-05T18:33:10;46.27;;;19.70;;
10063;SDS011;5071;52.360;13.134;2022-12-05T18:38:13;47.97;;;17.73;;
10063;SDS011;5071;52.360;13.134;2022-12-05T18:43:15;37.60;;;16.17;;
10063;SDS011;5071;52.360;13.134;2022-12-05T18:48:18;44.23;;;17.27;;
10063;SDS011;5071;52.360;13.134;2022-12-05T18:53:42;42.30;;;17.10;;
10063;SDS011;5071;52.360;13.134;2022-12-05T18:58:44;37.80;;;15.60;;
10063;SDS011;5071;52.360;13.134;2022-12-05T19:03:53;35.63;;;17.13;;
10063;SDS011;5071;52.360;13.134;2022-12-05T19:08:59;28.53;;;14.17;;
10063;SDS011;5071;52.360;13.134;2022-12-05T19:14:03;28.60;;;14.27;;
10063;SDS011;5071;52.360;13.134;2022-12-05T19:19:06;32.07;;;13.47;;
10063;SDS011;5071;52.360;13.134;2022-12-05T19:24:13;28.23;;;14.07;;
10063;SDS011;5071;52.360;13.134;2022-12-05T19:29:17;29.67;;;13.60;;
10063;SDS011;5071;52.360;13.134;2022-12-05T19:34:19;27.00;;;12.40;;
10063;SDS011;5071;52.360;13.134;2022-12-05T19:39:22;29.20;;;13.90;;
10063;SDS011;5071;52.360;13.134;2022-12-05T19:44:27;25.17;;;11.77;;
10063;SDS011;5071;52.360;13.134;2022-12-05T19:49:29;24.47;;;11.90;;
10063;SDS011;5071;52.360;13.134;2022-12-05T19:54:33;24.07;;;11.37;;
10063;SDS011;5071;52.360;13.134;2022-12-05T19:59:34;21.93;;;11.30;;
10063;SDS011;5071;52.360;13.134;2022-12-05T20:04:36;20.17;;;10.40;;
10063;SDS011;5071;52.360;13.134;2022-12-05T20:09:40;21.30;;;10.80;;
10063;SDS011;5071;52.360;13.134;2022-12-05T20:14:43;20.23;;;10.60;;
10063;SDS011;5071;52.360;13.134;2022-12-05T20:19:45;16.90;;;9.17;;
10063;SDS011;5071;52.360;13.134;2022-12-05T20:24:49;15.17;;;9.73;;
10063;SDS011;5071;52.360;13.134;2022-12-05T20:29:51;12.93;;;8.63;;
10063;SDS011;5071;52.360;13.134;2022-12-05T20:34:54;17.73;;;9.27;;
10063;SDS011;5071;52.360;13.134;2022-12-05T20:39:57;20.80;;;10.07;;
10063;SDS011;5071;52.360;13.134;2022-12-05T20:45:00;17.90;;;9.87;;
10063;SDS011;5071;52.360;13.134;2022-12-05T20:50:02;20.83;;;9.90;;
10063;SDS011;5071;52.360;13.134;2022-12-05T20:55:07;19.37;;;10.00;;
10063;SDS011;5071;52.360;13.134;2022-12-05T21:00:13;14.53;;;8.80;;
10063;SDS011;5071;52.360;13.134;2022-12-05T21:05:15;20.83;;;9.73;;
10063;SDS011;5071;52.360;13.134;2022-12-05T21:10:21;16.60;;;9.53;;
10063;SDS011;5071;52.360;13.134;2022-12-05T21:15:24;13.00;;;8.80;;
10063;SDS011;5071;52.360;13.134;2022-12-05T21:20:27;16.63;;;8.47;;
10063;SDS011;5071;52.360;13.134;2022-12-05T21:25:34;14.53;;;8.50;;
10063;SDS011;5071;52.360;13.134;2022-12-05T21:30:37;17.00;;;9.50;;
10063;SDS011;5071;52.360;13.134;2022-12-05T21:35:39;14.67;;;8.47;;
10063;SDS011;5071;52.360;13.134;2022-12-05T21:40:42;18.20;;;9.23;;
10063;SDS011;5071;52.360;13.134;2022-12-05T21:45:48;17.43;;;8.60;;
10063;SDS011;5071;52.360;13.134;2022-12-05T21:50:53;16.77;;;9.50;;
10063;SDS011;5071;52.360;13.134;2022-12-05T21:56:00;14.53;;;8.10;;
10063;SDS011;5071;52.360;13.134;2022-12-05T22:01:03;11.03;;;7.93;;
10063;SDS011;5071;52.360;13.134;2022-12-05T22:06:05;14.47;;;7.70;;
10063;SDS011;5071;52.360;13.134;2022-12-05T22:11:10;13.13;;;7.17;;
10063;SDS011;5071;52.360;13.134;2022-12-05T22:16:13;14.43;;;8.50;;
10063;SDS011;5071;52.360;13.134;2022-12-05T22:21:17;11.03;;;7.20;;
10063;SDS011;5071;52.360;13.134;2022-12-05T22:26:22;10.67;;;6.53;;
10063;SDS011;5071;52.360;13.134;2022-12-05T22:31:25;11.93;;;7.20;;
10063;SDS011;5071;52.360;13.134;2022-12-05T22:36:27;15.10;;;8.20;;
10063;SDS011;5071;52.360;13.134;2022-12-05T22:41:30;14.93;;;7.93;;
10063;SDS011;5071;52.360;13.134;2022-12-05T22:46:32;17.53;;;8.13;;
10063;SDS011;5071;52.360;13.134;2022-12-05T22:51:34;16.77;;;8.03;;
10063;SDS011;5071;52.360;13.134;2022-12-05T22:56:38;13.87;;;7.47;;
10063;SDS011;5071;52.360;13.134;2022-12-05T23:01:40;11.70;;;6.90;;
10063;SDS011;5071;52.360;13.134;2022-12-05T23:06:41;11.20;;;7.63;;
10063;SDS011;5071;52.360;13.134;2022-12-05T23:11:47;12.60;;;7.77;;
10063;SDS011;5071;52.360;13.134;2022-12-05T23:16:49;12.30;;;7.57;;
10063;SDS011;5071;52.360;13.134;2022-12-05T23:21:51;12.60;;;7.70;;
10063;SDS011;5071;52.360;13.134;2022-12-05T23:26:55;15.07;;;7.97;;
10063;SDS011;5071;52.360;13.134;2022-12-05T23:31:57;13.03;;;8.03;;
10063;SDS011;5071;52.360;13.134;2022-12-05T23:36:59;13.07;;;7.70;;
10063;SDS011;5071;52.360;13.134;2022-12-05T23:42:02;14.37;;;8.37;;
10063;SDS011;5071;52.360;13.134;2022-12-05T23:47:04;17.00;;;7.73;;
10063;SDS011;5071;52.360;13.134;2022-12-05T23:52:06;15.83;;;7.23;;
10063;SDS011;5071;52.360;13.134;2022-12-05T23:57:10;11.33;;;6.67;;
